Time;durP1;ratioP1;P1;durP2;ratioP2;P2;SDS_P1;SDS_P2;PMS_P1;PMS_P2;Temp;Humidity;BMP_temperature;BMP_pressure;BME280_temperature;BME280_humidity;BME280_pressure;Samples;Min_cycle;Max_cycle;Signal;HPM_P1;HPM_P2
2021/07/25 00:00:47;;;;;;;;;;;19.20;99.90;;;;;;5061477;28;19913;-70
2021/07/25 00:03:13;;;;;;;;;;;19.20;99.90;;;;;;5059279;28;19913;-70
2021/07/25 00:05:40;;;;;;;;;;;19.20;99.90;;;;;;5068660;28;20400;-71
2021/07/25 00:08:11;;;;;;;;;;;19.20;99.90;;;;;;5060850;28;19919;-70
2021/07/25 00:10:37;;;;;;;;;;;19.20;99.90;;;;;;5056691;28;19913;-70
2021/07/25 00:13:03;;;;;;;;;;;19.20;99.90;;;;;;5073425;28;19916;-70
2021/07/25 00:15:28;;;;;;;;;;;19.20;99.90;;;;;;5072545;28;19931;-70
2021/07/25 00:17:54;;;;;;;;;;;19.20;99.90;;;;;;5071574;28;19956;-70
2021/07/25 00:20:19;;;;;;;;;;;19.20;99.90;;;;;;5073596;28;19912;-70
2021/07/25 00:22:45;;;;;;;;;;;19.30;99.90;;;;;;5061291;28;20307;-70
2021/07/25 00:25:18;;;;;;;;;;;19.30;99.90;;;;;;5061467;28;20365;-70
2021/07/25 00:27:44;;;;;;;;;;;19.30;99.90;;;;;;5064213;28;19913;-70
2021/07/25 00:30:10;;;;;;;;;;;19.30;99.90;;;;;;5073714;28;19962;-70
2021/07/25 00:32:36;;;;;;;;;;;19.40;99.90;;;;;;5068363;28;20011;-70
2021/07/25 00:35:01;;;;;;;;;;;19.40;99.90;;;;;;5059702;28;19924;-70
2021/07/25 00:37:28;;;;;;;;;;;19.40;99.90;;;;;;5072351;28;19928;-70
2021/07/25 00:39:53;;;;;;;;;;;19.50;99.90;;;;;;5073561;28;20365;-70
2021/07/25 00:42:19;;;;;;;;;;;19.50;99.90;;;;;;5072295;28;19920;-70
2021/07/25 00:44:44;;;;;;;;;;;19.50;99.90;;;;;;5072866;28;20356;-71
2021/07/25 00:47:10;;;;;;;;;;;19.50;99.90;;;;;;5070604;28;19913;-70
2021/07/25 00:49:35;;;;;;;;;;;19.50;99.90;;;;;;5061428;28;19962;-70
2021/07/25 00:52:04;;;;;;;;;;;19.50;99.90;;;;;;5055094;28;19916;-70
2021/07/25 00:54:29;;;;;;;;;;;19.50;99.90;;;;;;5073481;28;19916;-70
2021/07/25 00:56:55;;;;;;;;;;;19.50;99.90;;;;;;5060684;28;19982;-70
2021/07/25 00:59:20;;;;;;;;;;;19.50;99.90;;;;;;5065679;28;19913;-70
2021/07/25 01:01:47;;;;;;;;;;;19.50;99.90;;;;;;5067325;28;19912;-71
2021/07/25 01:04:19;;;;;;;;;;;19.50;99.90;;;;;;5072712;28;19912;-70
2021/07/25 01:06:57;;;;;;;;;;;19.50;99.90;;;;;;5072010;28;20392;-70
2021/07/25 01:09:48;;;;;;;;;;;19.60;99.90;;;;;;5073370;28;19962;-70
2021/07/25 01:12:20;;;;;;;;;;;19.60;99.90;;;;;;5067829;28;20003;-70
2021/07/25 01:14:47;;;;;;;;;;;19.50;99.90;;;;;;5073334;28;20395;-70
2021/07/25 01:17:31;;;;;;;;;;;19.50;99.90;;;;;;5063436;28;20334;-71
2021/07/25 01:19:57;;;;;;;;;;;19.50;99.90;;;;;;5071963;28;19920;-70
2021/07/25 01:22:23;;;;;;;;;;;19.50;99.90;;;;;;5063615;28;19962;-70
2021/07/25 01:24:49;;;;;;;;;;;19.50;99.90;;;;;;5070319;28;19916;-71
2021/07/25 01:27:24;;;;;;;;;;;19.60;99.90;;;;;;5072481;28;20303;-70
2021/07/25 01:29:50;;;;;;;;;;;19.60;99.90;;;;;;5073161;28;19912;-70
2021/07/25 01:32:16;;;;;;;;;;;19.60;99.90;;;;;;5073169;28;19923;-70
2021/07/25 01:34:43;;;;;;;;;;;19.50;99.90;;;;;;5076721;28;19913;-70
2021/07/25 01:37:10;;;;;;;;;;;19.50;99.90;;;;;;5075961;28;19917;-71
2021/07/25 01:39:35;;;;;;;;;;;19.50;99.90;;;;;;5076789;28;19935;-70
2021/07/25 01:42:00;;;;;;;;;;;19.50;99.90;;;;;;5075942;28;20357;-70
2021/07/25 01:44:26;;;;;;;;;;;19.50;99.90;;;;;;5076517;28;19913;-70
2021/07/25 01:46:51;;;;;;;;;;;19.50;99.90;;;;;;5070243;28;19935;-70
2021/07/25 01:49:17;;;;;;;;;;;19.50;99.90;;;;;;5068580;28;20006;-70
2021/07/25 01:51:42;;;;;;;;;;;19.50;99.90;;;;;;5057010;28;19917;-70
2021/07/25 01:54:08;;;;;;;;;;;19.50;99.90;;;;;;5061310;28;20500;-70
2021/07/25 01:56:34;;;;;;;;;;;19.30;99.90;;;;;;5069078;28;19999;-72
2021/07/25 01:58:59;;;;;;;;;;;19.20;99.90;;;;;;5076255;28;19912;-70
2021/07/25 02:01:25;;;;;;;;;;;19.20;99.90;;;;;;5074953;28;20339;-70
2021/07/25 02:03:50;;;;;;;;;;;19.20;99.90;;;;;;5065910;28;19981;-70
2021/07/25 02:06:16;;;;;;;;;;;19.20;99.90;;;;;;5074071;28;19912;-70
2021/07/25 02:08:42;;;;;;;;;;;19.30;99.90;;;;;;5075432;28;20391;-70
2021/07/25 02:11:08;;;;;;;;;;;19.30;99.90;;;;;;5075456;28;20369;-70
2021/07/25 02:13:33;;;;;;;;;;;19.30;99.90;;;;;;5074502;28;20411;-70
2021/07/25 02:15:59;;;;;;;;;;;19.30;99.90;;;;;;5069570;28;19913;-70
2021/07/25 02:18:24;;;;;;;;;;;19.30;99.90;;;;;;5072673;28;19920;-70
2021/07/25 02:20:50;;;;;;;;;;;19.20;99.90;;;;;;5075427;28;19966;-70
2021/07/25 02:23:16;;;;;;;;;;;19.10;99.90;;;;;;5074878;28;19919;-70
2021/07/25 02:25:41;;;;;;;;;;;19.10;99.90;;;;;;5073043;28;19919;-70
2021/07/25 02:28:07;;;;;;;;;;;19.10;99.90;;;;;;5072342;28;19912;-71
2021/07/25 02:30:33;;;;;;;;;;;19.10;99.90;;;;;;5072951;28;19913;-70
2021/07/25 02:32:58;;;;;;;;;;;19.00;99.90;;;;;;5061603;28;19920;-71
2021/07/25 02:35:24;;;;;;;;;;;19.00;99.90;;;;;;5056363;28;19919;-70
2021/07/25 02:37:49;;;;;;;;;;;19.00;99.90;;;;;;5068481;28;20003;-70
2021/07/25 02:40:15;;;;;;;;;;;19.00;99.90;;;;;;5070113;28;19920;-70
2021/07/25 02:42:40;;;;;;;;;;;19.10;99.90;;;;;;5074240;28;19973;-71
2021/07/25 02:45:06;;;;;;;;;;;19.10;99.90;;;;;;5068572;28;19913;-71
2021/07/25 02:47:32;;;;;;;;;;;19.10;99.90;;;;;;5063809;28;19989;-70
2021/07/25 02:49:57;;;;;;;;;;;19.10;99.90;;;;;;5060415;28;19955;-70
2021/07/25 02:52:23;;;;;;;;;;;19.00;99.90;;;;;;5055839;28;19922;-70
2021/07/25 02:54:48;;;;;;;;;;;19.10;99.90;;;;;;5056634;28;19920;-70
2021/07/25 02:57:14;;;;;;;;;;;19.10;99.90;;;;;;5067360;28;19917;-70
2021/07/25 02:59:39;;;;;;;;;;;19.00;99.90;;;;;;5064154;28;19913;-70
2021/07/25 03:02:04;;;;;;;;;;;18.90;99.90;;;;;;5072200;28;19927;-70
2021/07/25 03:04:30;;;;;;;;;;;18.90;99.90;;;;;;5074150;28;19973;-71
2021/07/25 03:06:56;;;;;;;;;;;18.90;99.90;;;;;;5064559;28;19919;-70
2021/07/25 03:09:21;;;;;;;;;;;18.90;99.90;;;;;;5055140;28;20296;-70
2021/07/25 03:11:46;;;;;;;;;;;18.80;99.90;;;;;;5055424;28;20284;-70
2021/07/25 03:14:12;;;;;;;;;;;18.80;99.90;;;;;;5073814;28;19912;-70
2021/07/25 03:16:38;;;;;;;;;;;18.80;99.90;;;;;;5058461;28;19917;-71
2021/07/25 03:19:03;;;;;;;;;;;18.80;99.90;;;;;;5055134;28;19921;-71
2021/07/25 03:21:28;;;;;;;;;;;18.70;99.90;;;;;;5069129;28;20363;-71
2021/07/25 03:23:54;;;;;;;;;;;18.60;99.90;;;;;;5074942;28;19912;-70
2021/07/25 03:26:19;;;;;;;;;;;18.60;99.90;;;;;;5072734;28;19981;-70
2021/07/25 03:28:46;;;;;;;;;;;18.50;99.90;;;;;;5054797;28;19966;-70
2021/07/25 03:31:11;;;;;;;;;;;18.50;99.90;;;;;;5062191;28;19912;-70
2021/07/25 03:33:37;;;;;;;;;;;18.50;99.90;;;;;;5071789;28;19965;-70
2021/07/25 03:36:02;;;;;;;;;;;18.60;99.90;;;;;;5068502;28;19913;-70
2021/07/25 03:38:28;;;;;;;;;;;18.60;99.90;;;;;;5071276;28;19916;-70
2021/07/25 03:41:01;;;;;;;;;;;18.60;99.90;;;;;;5074259;28;19912;-70
2021/07/25 03:43:27;;;;;;;;;;;18.70;99.90;;;;;;5073440;28;19920;-71
2021/07/25 03:45:52;;;;;;;;;;;18.70;99.90;;;;;;5057903;28;19912;-71
2021/07/25 03:48:18;;;;;;;;;;;18.70;99.90;;;;;;5074418;28;20011;-70
2021/07/25 03:50:43;;;;;;;;;;;18.80;99.90;;;;;;5072916;28;20269;-70
2021/07/25 03:53:09;;;;;;;;;;;18.80;99.90;;;;;;5073588;28;19917;-70
2021/07/25 03:55:35;;;;;;;;;;;18.70;99.90;;;;;;5071599;28;19908;-70
2021/07/25 03:58:01;;;;;;;;;;;18.70;99.90;;;;;;5059086;28;19912;-70
2021/07/25 04:00:26;;;;;;;;;;;18.80;99.90;;;;;;5063119;28;19908;-70
2021/07/25 04:02:52;;;;;;;;;;;18.80;99.90;;;;;;5055803;28;19913;-70
2021/07/25 04:05:17;;;;;;;;;;;18.80;99.90;;;;;;5057822;28;20085;-70
2021/07/25 04:07:43;;;;;;;;;;;18.70;99.90;;;;;;5064436;28;19919;-70
2021/07/25 04:10:09;;;;;;;;;;;18.70;99.90;;;;;;5075913;28;19943;-70
2021/07/25 04:12:34;;;;;;;;;;;18.70;99.90;;;;;;5075554;28;19923;-70
2021/07/25 04:15:01;;;;;;;;;;;18.60;99.90;;;;;;5074475;28;19909;-70
2021/07/25 04:17:26;;;;;;;;;;;18.60;99.90;;;;;;5057502;28;19920;-70
2021/07/25 04:19:51;;;;;;;;;;;18.70;99.90;;;;;;5065134;28;20392;-70
2021/07/25 04:22:17;;;;;;;;;;;18.60;99.90;;;;;;5076217;28;19913;-71
2021/07/25 04:24:42;;;;;;;;;;;18.70;99.90;;;;;;5075539;28;19912;-70
2021/07/25 04:27:08;;;;;;;;;;;18.60;99.90;;;;;;5076030;28;19920;-71
2021/07/25 04:29:34;;;;;;;;;;;18.60;99.90;;;;;;5076289;28;19908;-70
2021/07/25 04:31:59;;;;;;;;;;;18.60;99.90;;;;;;5060500;28;19917;-70
2021/07/25 04:34:25;;;;;;;;;;;18.60;99.90;;;;;;5076718;28;19912;-70
2021/07/25 04:36:51;;;;;;;;;;;18.60;99.90;;;;;;5059731;28;19920;-71
2021/07/25 04:39:17;;;;;;;;;;;18.60;99.90;;;;;;5063721;28;19912;-70
2021/07/25 04:41:52;;;;;;;;;;;18.60;99.90;;;;;;5078610;28;19931;-70
2021/07/25 04:44:28;;;;;;;;;;;18.70;99.90;;;;;;5068855;28;19920;-71
2021/07/25 04:46:55;;;;;;;;;;;18.70;99.90;;;;;;5068480;28;19913;-71
2021/07/25 04:49:23;;;;;;;;;;;18.70;99.90;;;;;;5091219;28;19912;-71
2021/07/25 04:51:51;;;;;;;;;;;18.70;99.90;;;;;;5074180;28;19981;-71
2021/07/25 04:54:17;;;;;;;;;;;18.80;99.90;;;;;;5073521;28;20050;-70
2021/07/25 04:56:59;;;;;;;;;;;18.80;99.90;;;;;;5073454;28;19948;-70
2021/07/25 04:59:29;;;;;;;;;;;18.90;99.90;;;;;;5064918;28;19913;-70
2021/07/25 05:01:59;;;;;;;;;;;18.90;99.90;;;;;;5072532;28;19991;-70
2021/07/25 05:04:25;;;;;;;;;;;18.90;99.90;;;;;;5057611;28;20246;-70
2021/07/25 05:06:51;;;;;;;;;;;18.80;99.90;;;;;;5053869;28;19919;-70
2021/07/25 05:09:17;;;;;;;;;;;18.80;99.90;;;;;;5077495;28;20368;-70
2021/07/25 05:11:45;;;;;;;;;;;18.90;99.90;;;;;;5069611;28;20011;-70
2021/07/25 05:14:17;;;;;;;;;;;19.00;99.90;;;;;;5070404;28;19912;-70
2021/07/25 05:16:45;;;;;;;;;;;19.00;99.90;;;;;;5076788;28;19919;-71
2021/07/25 05:19:11;;;;;;;;;;;19.10;99.90;;;;;;5067618;28;19927;-70
2021/07/25 05:21:41;;;;;;;;;;;19.10;99.90;;;;;;5062611;28;20272;-70
2021/07/25 05:24:07;;;;;;;;;;;19.10;99.90;;;;;;5068272;28;20399;-71
2021/07/25 05:26:35;;;;;;;;;;;19.20;99.90;;;;;;5060562;28;19909;-70
2021/07/25 05:29:01;;;;;;;;;;;19.20;99.90;;;;;;5066739;28;19920;-70
2021/07/25 05:31:45;;;;;;;;;;;19.20;99.90;;;;;;5075491;28;19915;-70
2021/07/25 05:34:11;;;;;;;;;;;19.20;99.90;;;;;;5059284;28;19917;-71
2021/07/25 05:36:36;;;;;;;;;;;19.30;99.90;;;;;;5075344;28;19953;-70
2021/07/25 05:39:02;;;;;;;;;;;19.30;99.90;;;;;;5060467;28;19920;-70
2021/07/25 05:41:27;;;;;;;;;;;19.40;99.90;;;;;;5056567;28;20353;-70
2021/07/25 05:43:53;;;;;;;;;;;19.40;99.90;;;;;;5057998;28;19913;-70
2021/07/25 05:46:18;;;;;;;;;;;19.50;99.90;;;;;;5072127;28;19962;-70
2021/07/25 05:48:44;;;;;;;;;;;19.60;99.90;;;;;;5075151;28;19916;-70
2021/07/25 05:51:09;;;;;;;;;;;19.80;99.90;;;;;;5076530;28;20007;-70
2021/07/25 05:53:34;;;;;;;;;;;19.80;99.90;;;;;;5069079;28;19917;-70
2021/07/25 05:56:00;;;;;;;;;;;19.90;99.90;;;;;;5069800;28;19913;-71
2021/07/25 05:58:25;;;;;;;;;;;19.80;99.90;;;;;;5070348;28;19967;-70
2021/07/25 06:00:52;;;;;;;;;;;19.80;99.90;;;;;;5074419;28;19908;-70
2021/07/25 06:03:17;;;;;;;;;;;19.80;99.90;;;;;;5061045;28;20364;-70
2021/07/25 06:05:43;;;;;;;;;;;19.80;99.90;;;;;;5068672;28;19913;-70
2021/07/25 06:08:09;;;;;;;;;;;19.90;99.90;;;;;;5067341;28;20007;-70
2021/07/25 06:10:35;;;;;;;;;;;19.90;99.90;;;;;;5065473;28;19974;-70
2021/07/25 06:13:02;;;;;;;;;;;20.00;99.90;;;;;;5067390;28;20408;-71
2021/07/25 06:15:29;;;;;;;;;;;20.00;99.90;;;;;;5075302;28;19913;-70
2021/07/25 06:17:55;;;;;;;;;;;20.30;99.90;;;;;;5070181;28;20285;-70
2021/07/25 06:20:21;;;;;;;;;;;20.60;99.90;;;;;;5062225;28;20003;-70
2021/07/25 06:22:47;;;;;;;;;;;20.60;99.90;;;;;;5073981;28;20369;-70
2021/07/25 06:25:15;;;;;;;;;;;20.70;99.90;;;;;;5058869;28;19913;-70
2021/07/25 06:27:41;;;;;;;;;;;21.50;99.90;;;;;;5058396;28;19969;-70
2021/07/25 06:30:08;;;;;;;;;;;23.50;99.90;;;;;;5073473;28;20009;-71
2021/07/25 06:32:53;;;;;;;;;;;25.00;99.90;;;;;;5064218;28;19916;-71
2021/07/25 06:35:19;;;;;;;;;;;26.10;99.90;;;;;;5065190;28;19916;-71
2021/07/25 06:37:44;;;;;;;;;;;26.80;99.90;;;;;;5074601;28;19935;-71
2021/07/25 06:40:10;;;;;;;;;;;27.20;99.90;;;;;;5056082;28;19913;-71
2021/07/25 06:42:35;;;;;;;;;;;27.30;99.90;;;;;;5070916;28;19912;-71
2021/07/25 06:45:01;;;;;;;;;;;27.50;99.90;;;;;;5074098;28;19912;-71
2021/07/25 06:47:28;;;;;;;;;;;27.70;99.90;;;;;;5066111;28;19917;-71
2021/07/25 06:49:54;;;;;;;;;;;27.90;99.90;;;;;;5074729;28;19912;-71
2021/07/25 06:52:19;;;;;;;;;;;28.00;99.90;;;;;;5073788;28;20357;-71
2021/07/25 06:54:44;;;;;;;;;;;28.00;99.90;;;;;;5070287;28;19912;-70
2021/07/25 06:57:10;;;;;;;;;;;28.20;99.90;;;;;;5075255;28;19912;-70
2021/07/25 06:59:35;;;;;;;;;;;28.20;99.90;;;;;;5074721;28;19943;-70
2021/07/25 07:02:01;;;;;;;;;;;27.60;99.90;;;;;;5073065;28;19919;-71
2021/07/25 07:04:26;;;;;;;;;;;26.80;99.90;;;;;;5074232;28;19919;-70
2021/07/25 07:06:52;;;;;;;;;;;25.70;99.90;;;;;;5064684;28;19935;-71
2021/07/25 07:09:17;;;;;;;;;;;25.10;99.90;;;;;;5062549;28;19959;-72
2021/07/25 07:11:43;;;;;;;;;;;24.60;99.90;;;;;;5055371;28;19924;-71
2021/07/25 07:14:08;;;;;;;;;;;24.30;99.90;;;;;;5072577;28;19912;-71
2021/07/25 07:16:34;;;;;;;;;;;24.40;99.90;;;;;;5066631;28;19920;-71
2021/07/25 07:18:59;;;;;;;;;;;25.10;99.90;;;;;;5072513;28;19999;-71
2021/07/25 07:21:25;;;;;;;;;;;25.80;99.90;;;;;;5063689;28;19912;-75
2021/07/25 07:23:50;;;;;;;;;;;26.30;99.90;;;;;;5061925;28;20304;-74
2021/07/25 07:26:16;;;;;;;;;;;26.70;99.90;;;;;;5057203;28;20262;-72
2021/07/25 07:28:41;;;;;;;;;;;26.80;99.90;;;;;;5056568;28;20018;-71
2021/07/25 07:31:07;;;;;;;;;;;26.80;99.90;;;;;;5074181;28;19991;-72
2021/07/25 07:33:32;;;;;;;;;;;26.60;99.90;;;;;;5058638;28;19923;-71
2021/07/25 07:35:58;;;;;;;;;;;26.40;99.90;;;;;;5072794;28;19916;-71
2021/07/25 07:38:23;;;;;;;;;;;26.20;99.90;;;;;;5058573;28;19913;-71
2021/07/25 07:40:49;;;;;;;;;;;25.80;99.90;;;;;;5068453;28;20360;-70
2021/07/25 07:43:16;;;;;;;;;;;25.40;99.90;;;;;;5068966;28;19912;-71
2021/07/25 07:45:42;;;;;;;;;;;25.20;99.90;;;;;;5072814;28;19912;-70
2021/07/25 07:48:08;;;;;;;;;;;25.00;99.90;;;;;;5055398;28;19939;-71
2021/07/25 07:50:33;;;;;;;;;;;24.90;99.90;;;;;;5070345;28;19912;-70
2021/07/25 07:52:59;;;;;;;;;;;25.00;99.90;;;;;;5070198;28;19916;-72
2021/07/25 07:55:24;;;;;;;;;;;24.90;99.90;;;;;;5058191;28;19920;-71
2021/07/25 07:57:50;;;;;;;;;;;24.80;99.90;;;;;;5062202;28;19920;-71
2021/07/25 08:00:15;;;;;;;;;;;24.80;99.90;;;;;;5063502;28;19966;-71
2021/07/25 08:02:41;;;;;;;;;;;24.60;99.90;;;;;;5062686;28;19919;-71
2021/07/25 08:05:07;;;;;;;;;;;24.60;99.90;;;;;;5071329;28;19912;-71
2021/07/25 08:07:32;;;;;;;;;;;24.80;99.90;;;;;;5059117;28;19919;-71
2021/07/25 08:09:58;;;;;;;;;;;25.10;99.90;;;;;;5056973;28;19916;-72
2021/07/25 08:12:24;;;;;;;;;;;25.50;99.90;;;;;;5058699;28;19923;-71
2021/07/25 08:14:50;;;;;;;;;;;25.80;99.90;;;;;;5065458;28;19920;-71
2021/07/25 08:17:15;;;;;;;;;;;26.00;99.90;;;;;;5053607;28;19917;-71
2021/07/25 08:19:41;;;;;;;;;;;26.20;99.90;;;;;;5060771;28;20003;-71
2021/07/25 08:22:07;;;;;;;;;;;26.20;99.90;;;;;;5061966;28;19919;-71
2021/07/25 08:24:38;;;;;;;;;;;26.50;99.90;;;;;;5062325;28;20269;-72
2021/07/25 08:27:07;;;;;;;;;;;26.60;99.90;;;;;;5073366;28;19912;-71
2021/07/25 08:29:33;;;;;;;;;;;26.80;99.90;;;;;;5068655;28;19913;-72
2021/07/25 08:31:59;;;;;;;;;;;27.00;99.90;;;;;;5072347;28;19916;-72
2021/07/25 08:34:25;;;;;;;;;;;27.10;99.90;;;;;;5067548;28;19962;-72
2021/07/25 08:36:50;;;;;;;;;;;27.20;99.90;;;;;;5067370;28;19913;-72
2021/07/25 08:39:16;;;;;;;;;;;27.30;99.90;;;;;;5068956;28;19919;-73
2021/07/25 08:41:48;;;;;;;;;;;27.60;99.90;;;;;;5066708;28;19919;-72
2021/07/25 08:44:32;;;;;;;;;;;27.50;99.90;;;;;;5080619;28;19916;-75
2021/07/25 08:46:57;;;;;;;;;;;27.60;99.90;;;;;;5067806;28;19958;-72
2021/07/25 08:49:39;;;;;;;;;;;28.00;99.90;;;;;;5071976;28;19965;-72
2021/07/25 08:52:05;;;;;;;;;;;28.30;99.90;;;;;;5069171;28;19920;-73
2021/07/25 08:54:31;;;;;;;;;;;28.60;99.90;;;;;;5074238;28;19912;-72
2021/07/25 08:56:58;;;;;;;;;;;28.90;99.90;;;;;;5059504;28;19923;-72
2021/07/25 08:59:24;;;;;;;;;;;29.10;99.90;;;;;;5063968;28;19921;-73
2021/07/25 09:01:50;;;;;;;;;;;29.00;99.90;;;;;;5067985;28;19912;-72
2021/07/25 09:04:16;;;;;;;;;;;29.00;99.90;;;;;;5077168;28;19913;-73
2021/07/25 09:06:48;;;;;;;;;;;29.20;99.70;;;;;;5077305;28;19958;-72
2021/07/25 09:09:13;;;;;;;;;;;29.30;99.80;;;;;;5071683;28;19964;-72
2021/07/25 09:11:39;;;;;;;;;;;29.40;99.80;;;;;;5065293;28;20340;-74
2021/07/25 09:14:05;;;;;;;;;;;29.40;99.70;;;;;;5071887;28;19995;-73
2021/07/25 09:16:32;;;;;;;;;;;29.50;99.30;;;;;;5073823;28;19951;-73
2021/07/25 09:18:57;;;;;;;;;;;29.50;99.90;;;;;;5067509;28;20289;-73
2021/07/25 09:21:52;;;;;;;;;;;29.70;99.40;;;;;;5071103;28;19912;-73
2021/07/25 09:24:28;;;;;;;;;;;29.70;99.00;;;;;;5074175;28;19916;-73
2021/07/25 09:26:53;;;;;;;;;;;29.10;99.40;;;;;;5062122;28;19913;-73
2021/07/25 09:29:21;;;;;;;;;;;28.60;99.80;;;;;;5057933;28;19920;-73
2021/07/25 09:31:47;;;;;;;;;;;28.30;99.90;;;;;;5067936;28;19952;-72
2021/07/25 09:34:32;;;;;;;;;;;28.20;99.90;;;;;;5065218;28;19951;-73
2021/07/25 09:37:14;;;;;;;;;;;28.00;99.90;;;;;;5077088;28;19912;-73
2021/07/25 09:39:44;;;;;;;;;;;27.80;99.90;;;;;;5075472;28;19919;-73
2021/07/25 09:42:10;;;;;;;;;;;27.40;99.90;;;;;;5075868;28;19919;-72
2021/07/25 09:44:45;;;;;;;;;;;27.40;99.90;;;;;;5076807;28;19962;-72
2021/07/25 09:47:26;;;;;;;;;;;27.30;99.90;;;;;;5067039;28;19912;-72
2021/07/25 09:49:52;;;;;;;;;;;27.00;99.90;;;;;;5056674;28;19935;-72
2021/07/25 09:52:28;;;;;;;;;;;26.80;99.90;;;;;;5072431;28;20400;-73
2021/07/25 09:54:56;;;;;;;;;;;26.40;99.90;;;;;;5074286;28;19920;-73
2021/07/25 09:57:24;;;;;;;;;;;26.30;99.90;;;;;;5076412;28;19913;-72
2021/07/25 09:59:50;;;;;;;;;;;26.20;99.90;;;;;;5076591;28;20284;-72
2021/07/25 10:02:33;;;;;;;;;;;26.10;99.90;;;;;;5076116;28;19913;-73
2021/07/25 10:05:08;;;;;;;;;;;26.50;99.90;;;;;;5066372;28;19920;-71
2021/07/25 10:07:34;;;;;;;;;;;27.00;99.90;;;;;;5060173;28;19913;-71
2021/07/25 10:10:00;;;;;;;;;;;27.30;99.90;;;;;;5075049;28;20045;-72
2021/07/25 10:12:29;;;;;;;;;;;27.40;99.90;;;;;;5076206;28;19916;-73
2021/07/25 10:14:57;;;;;;;;;;;27.30;99.90;;;;;;5076082;28;20292;-73
2021/07/25 10:17:23;;;;;;;;;;;27.00;99.90;;;;;;5076056;28;19916;-73
2021/07/25 10:19:50;;;;;;;;;;;26.80;99.90;;;;;;5075444;28;19939;-73
2021/07/25 10:22:16;;;;;;;;;;;26.50;99.90;;;;;;5074648;28;20329;-72
2021/07/25 10:24:45;;;;;;;;;;;26.80;99.90;;;;;;5075881;28;20438;-72
2021/07/25 10:27:15;;;;;;;;;;;27.50;99.90;;;;;;5075770;28;20011;-73
2021/07/25 10:29:40;;;;;;;;;;;28.20;99.90;;;;;;5075869;28;19913;-73
2021/07/25 10:32:06;;;;;;;;;;;29.00;99.50;;;;;;5074350;28;19916;-73
2021/07/25 10:34:33;;;;;;;;;;;29.70;98.30;;;;;;5070857;28;19913;-73
2021/07/25 10:37:00;;;;;;;;;;;30.20;96.60;;;;;;5055640;28;19913;-73
2021/07/25 10:39:27;;;;;;;;;;;30.40;96.10;;;;;;5055689;28;19999;-73
2021/07/25 10:41:55;;;;;;;;;;;30.60;96.00;;;;;;5055651;28;19913;-73
2021/07/25 10:44:20;;;;;;;;;;;30.70;96.00;;;;;;5055715;28;20355;-73
2021/07/25 10:46:46;;;;;;;;;;;30.70;95.80;;;;;;5061674;28;19912;-73
2021/07/25 10:49:12;;;;;;;;;;;30.20;96.10;;;;;;5075513;28;19913;-72
2021/07/25 10:52:13;;;;;;;;;;;29.50;96.80;;;;;;5075369;28;20142;-73
2021/07/25 10:54:45;;;;;;;;;;;28.90;97.60;;;;;;5013435;28;20325;-73
2021/07/25 10:57:11;;;;;;;;;;;28.40;98.10;;;;;;5065193;28;20408;-72
2021/07/25 10:59:45;;;;;;;;;;;28.60;97.80;;;;;;5073960;28;19963;-74
2021/07/25 11:02:23;;;;;;;;;;;28.80;97.50;;;;;;5075230;28;19912;-73
2021/07/25 11:04:54;;;;;;;;;;;29.00;97.00;;;;;;5064219;28;19962;-73
2021/07/25 11:07:23;;;;;;;;;;;29.10;96.70;;;;;;5068936;28;19917;-73
2021/07/25 11:09:54;;;;;;;;;;;29.10;96.50;;;;;;5053779;28;19917;-73
2021/07/25 11:12:20;;;;;;;;;;;29.00;97.20;;;;;;5068182;28;19970;-72
2021/07/25 11:14:59;;;;;;;;;;;29.00;97.20;;;;;;5074841;28;20420;-73
2021/07/25 11:17:43;;;;;;;;;;;29.20;97.50;;;;;;5071057;28;19917;-72
2021/07/25 11:20:28;;;;;;;;;;;29.20;97.40;;;;;;5065593;28;20288;-73
2021/07/25 11:22:54;;;;;;;;;;;29.40;96.40;;;;;;5068463;28;19912;-73
2021/07/25 11:25:26;;;;;;;;;;;29.30;96.10;;;;;;5062190;28;19981;-73
2021/07/25 11:27:51;;;;;;;;;;;28.90;96.70;;;;;;5068740;28;19948;-72
2021/07/25 11:30:37;;;;;;;;;;;28.40;98.10;;;;;;5057675;28;19960;-72
2021/07/25 11:33:02;;;;;;;;;;;27.80;98.90;;;;;;5073480;28;19917;-72
2021/07/25 11:35:28;;;;;;;;;;;27.60;99.20;;;;;;5065485;28;19923;-72
2021/07/25 11:37:55;;;;;;;;;;;27.60;98.70;;;;;;5054721;28;20389;-76
2021/07/25 11:40:22;;;;;;;;;;;27.40;98.60;;;;;;5071559;28;20272;-74
2021/07/25 11:42:49;;;;;;;;;;;27.30;99.10;;;;;;5073017;28;19923;-74
2021/07/25 11:45:15;;;;;;;;;;;27.40;98.90;;;;;;5073353;28;20379;-73
2021/07/25 11:47:40;;;;;;;;;;;27.40;98.90;;;;;;5073633;28;20006;-72
2021/07/25 11:50:06;;;;;;;;;;;27.40;99.10;;;;;;5060675;28;20376;-73
2021/07/25 11:52:31;;;;;;;;;;;27.30;99.00;;;;;;5064253;28;19921;-73
2021/07/25 11:54:57;;;;;;;;;;;27.30;99.20;;;;;;5058409;28;19916;-73
2021/07/25 11:57:24;;;;;;;;;;;27.30;99.30;;;;;;5053579;28;20316;-73
2021/07/25 11:59:58;;;;;;;;;;;27.20;99.50;;;;;;5054440;28;19912;-73
2021/07/25 12:02:34;;;;;;;;;;;27.10;99.80;;;;;;5062249;28;19927;-73
2021/07/25 12:05:00;;;;;;;;;;;26.90;99.70;;;;;;5072912;28;20041;-73
2021/07/25 12:07:32;;;;;;;;;;;27.20;99.80;;;;;;5072841;28;19919;-73
2021/07/25 12:09:58;;;;;;;;;;;27.70;98.90;;;;;;5074122;28;20320;-73
2021/07/25 12:12:24;;;;;;;;;;;27.80;99.00;;;;;;5074019;28;19947;-73
2021/07/25 12:14:50;;;;;;;;;;;27.50;99.40;;;;;;5072806;28;19913;-73
2021/07/25 12:17:34;;;;;;;;;;;27.40;98.90;;;;;;5071767;28;19923;-74
2021/07/25 12:20:13;;;;;;;;;;;27.40;98.70;;;;;;5055943;28;19920;-73
2021/07/25 12:23:00;;;;;;;;;;;27.20;99.00;;;;;;5053062;28;20372;-73
2021/07/25 12:25:25;;;;;;;;;;;27.30;99.30;;;;;;5053835;28;19919;-73
2021/07/25 12:28:07;;;;;;;;;;;27.60;98.80;;;;;;5053734;28;19913;-73
2021/07/25 12:30:46;;;;;;;;;;;27.80;98.60;;;;;;5053725;28;20361;-73
2021/07/25 12:33:13;;;;;;;;;;;27.70;99.60;;;;;;5053719;28;19970;-73
2021/07/25 12:35:38;;;;;;;;;;;27.70;99.50;;;;;;5053704;28;20060;-73
2021/07/25 12:38:11;;;;;;;;;;;27.50;99.90;;;;;;5053721;28;19917;-73
2021/07/25 12:40:47;;;;;;;;;;;27.20;99.50;;;;;;5053719;28;20381;-74
2021/07/25 12:43:16;;;;;;;;;;;27.00;99.50;;;;;;5052305;28;19913;-73
2021/07/25 12:45:42;;;;;;;;;;;27.20;99.80;;;;;;5069841;28;19981;-73
2021/07/25 12:48:16;;;;;;;;;;;27.40;99.10;;;;;;5073655;28;19999;-73
2021/07/25 12:50:46;;;;;;;;;;;27.90;99.20;;;;;;5072317;28;19967;-73
2021/07/25 12:53:30;;;;;;;;;;;28.30;98.20;;;;;;5071854;28;19916;-73
2021/07/25 12:55:56;;;;;;;;;;;28.30;98.40;;;;;;5073803;28;19919;-73
2021/07/25 12:58:25;;;;;;;;;;;28.10;99.00;;;;;;5073549;28;19913;-73
2021/07/25 13:06:08;;;;;;;;;;;27.40;97.90;;;;;;5053979;28;19931;-73
2021/07/25 13:08:34;;;;;;;;;;;27.30;98.20;;;;;;5053522;28;19913;-73
2021/07/25 13:11:00;;;;;;;;;;;27.00;98.60;;;;;;5053410;28;19919;-72
2021/07/25 13:13:26;;;;;;;;;;;26.70;99.80;;;;;;5053389;28;19916;-73
2021/07/25 13:15:52;;;;;;;;;;;26.40;99.90;;;;;;5057775;28;20430;-74
2021/07/25 13:18:19;;;;;;;;;;;26.20;99.90;;;;;;5055612;28;20015;-73
2021/07/25 13:20:44;;;;;;;;;;;26.00;99.90;;;;;;5071399;28;20380;-73
2021/07/25 13:23:12;;;;;;;;;;;25.80;99.90;;;;;;5066281;28;19963;-73
2021/07/25 13:25:37;;;;;;;;;;;25.60;99.90;;;;;;5073179;28;19962;-73
2021/07/25 13:28:03;;;;;;;;;;;25.40;99.90;;;;;;5073691;28;20339;-73
2021/07/25 13:30:28;;;;;;;;;;;25.20;99.90;;;;;;5076980;28;19912;-73
2021/07/25 13:32:54;;;;;;;;;;;25.10;99.90;;;;;;5077001;28;19917;-73
2021/07/25 13:38:03;;;;;;;;;;;24.80;99.90;;;;;;5056950;28;20030;-73
2021/07/25 13:40:29;;;;;;;;;;;24.70;99.90;;;;;;5055753;28;19916;-73
2021/07/25 13:42:55;;;;;;;;;;;24.50;99.90;;;;;;5057120;28;19913;-73
2021/07/25 13:45:20;;;;;;;;;;;24.50;99.90;;;;;;5055402;28;19913;-73
2021/07/25 13:47:46;;;;;;;;;;;24.40;99.90;;;;;;5056598;28;19913;-73
2021/07/25 13:50:13;;;;;;;;;;;24.40;99.90;;;;;;5074133;28;20062;-73
2021/07/25 13:52:39;;;;;;;;;;;24.40;99.90;;;;;;5076541;28;19921;-73
2021/07/25 13:55:05;;;;;;;;;;;24.50;99.90;;;;;;5075676;28;20300;-73
2021/07/25 13:57:30;;;;;;;;;;;24.40;99.90;;;;;;5076375;28;19912;-73
2021/07/25 13:59:56;;;;;;;;;;;24.30;99.90;;;;;;5076419;28;19959;-72
2021/07/25 14:02:21;;;;;;;;;;;24.20;99.90;;;;;;5075632;28;19918;-73
2021/07/25 14:04:47;;;;;;;;;;;24.00;99.90;;;;;;5074907;28;20006;-75
2021/07/25 14:07:15;;;;;;;;;;;23.50;99.90;;;;;;5076319;28;19959;-74
2021/07/25 14:09:41;;;;;;;;;;;23.20;99.90;;;;;;5075171;28;19995;-75
2021/07/25 14:12:07;;;;;;;;;;;22.90;99.90;;;;;;5065033;28;20342;-75
2021/07/25 14:14:32;;;;;;;;;;;22.60;99.90;;;;;;5056435;28;20361;-74
2021/07/25 14:17:03;;;;;;;;;;;22.40;99.90;;;;;;5071467;28;19917;-74
2021/07/25 14:19:29;;;;;;;;;;;22.20;99.90;;;;;;5067149;28;19916;-75
2021/07/25 14:21:54;;;;;;;;;;;21.90;99.90;;;;;;5076010;28;19919;-75
2021/07/25 14:24:20;;;;;;;;;;;21.70;99.90;;;;;;5074180;28;19912;-73
2021/07/25 14:26:45;;;;;;;;;;;21.50;99.90;;;;;;5075805;28;19913;-73